Terminal Aerodrome Forecast
Issued by NWS Lake Charles, LA

Home | Current Version | Previous Version | Text Only | Print | Product List | Glossary On
Versions: 1 2 3 4 5 6 7 8 9 10 11 12 13
000
FTUS44 KLCH 312300
TAFLFT
TAF
KLFT 312325Z 0100/0124 VRB03KT P6SM SCT050 BKN200
     FM011300 18005KT P6SM VCSH SCT040 BKN150
     FM011800 22006KT P6SM VCSH BKN050 PROB30 0118/0124 3SM TSRA
      BKN030CB=

USA.gov is the U.S. government's official web portal to all federal, state and local government web resources and services.